Time;durP1;ratioP1;P1;durP2;ratioP2;P2;SDS_P1;SDS_P2;PMS_P1;PMS_P2;Temp;Humidity;BMP_temperature;BMP_pressure;BME280_temperature;BME280_humidity;BME280_pressure;Samples;Min_cycle;Max_cycle;Signal;HPM_P1;HPM_P2
2022/09/24 00:01:29;;;;;;;15.05;10.80;;;14.50;99.90;;;;;;4932962;29;20363;-85
2022/09/24 00:04:00;;;;;;;15.88;10.88;;;14.50;99.90;;;;;;4919846;29;20028;-86
2022/09/24 00:06:28;;;;;;;17.30;11.45;;;14.40;99.90;;;;;;4913853;29;20584;-85
2022/09/24 00:08:55;;;;;;;16.88;11.80;;;14.40;99.90;;;;;;4912730;29;20028;-86
2022/09/24 00:11:22;;;;;;;21.38;12.00;;;;;;;;;;4912572;29;20040;-86
2022/09/24 00:13:49;;;;;;;16.83;11.73;;;;;;;;;;4914186;29;20032;-85
2022/09/24 00:16:15;;;;;;;14.77;11.63;;;;;;;;;;4916053;29;20408;-86
2022/09/24 00:18:41;;;;;;;14.88;10.30;;;;;;;;;;4934835;29;20066;-87
2022/09/24 00:21:31;;;;;;;14.63;10.70;;;;;;;;;;4936419;29;20092;-86
2022/09/24 00:23:58;;;;;;;17.05;11.10;;;;;;;;;;4931750;29;20035;-86
2022/09/24 00:29:11;;;;;;;14.18;10.18;;;;;;;;;;4930342;29;20039;-86
2022/09/24 00:31:37;;;;;;;18.52;11.10;;;;;;;;;;4917836;29;20036;-84
2022/09/24 00:34:04;;;;;;;13.88;10.00;;;;;;;;;;4936714;29;20043;-85
2022/09/24 00:36:30;;;;;;;18.92;10.90;;;;;;;;;;4936166;29;20036;-86
2022/09/24 00:38:57;;;;;;;15.75;10.55;;;;;;;;;;4935727;29;20032;-85
2022/09/24 00:41:25;;;;;;;15.68;11.48;;;;;;;;;;4934849;29;20035;-86
2022/09/24 00:43:51;;;;;;;14.15;9.95;;;;;;;;;;4923696;29;20036;-85
2022/09/24 00:46:18;;;;;;;14.45;10.63;;;;;;;;;;4929221;29;20485;-86
2022/09/24 00:48:45;;;;;;;17.73;11.15;;;;;;;;;;4928702;29;20028;-86
2022/09/24 00:51:13;;;;;;;15.75;10.15;;;;;;;;;;4916934;29;20024;-84
2022/09/24 00:53:40;;;;;;;17.55;9.93;;;;;;;;;;4917949;29;20469;-86
2022/09/24 00:56:07;;;;;;;17.52;10.40;;;;;;;;;;4917580;29;20035;-87
2022/09/24 00:58:34;;;;;;;14.48;9.85;;;;;;;;;;4915380;29;20028;-85
2022/09/24 01:01:03;;;;;;;15.73;9.55;;;;;;;;;;4915666;29;20239;-84
2022/09/24 01:03:31;;;;;;;16.48;10.00;;;;;;;;;;4916621;29;20024;-85
2022/09/24 01:05:57;;;;;;;16.23;9.90;;;;;;;;;;4915184;29;20039;-86
2022/09/24 01:08:23;;;;;;;17.17;10.27;;;;;;;;;;4917107;29;20485;-86
2022/09/24 01:10:55;;;;;;;14.38;9.20;;;;;;;;;;4934303;29;20448;-86
2022/09/24 01:13:30;;;;;;;13.00;8.93;;;;;;;;;;4929012;29;20039;-88
2022/09/24 01:16:03;;;;;;;14.65;9.88;;;;;;;;;;4935129;29;20040;-87
2022/09/24 01:18:40;;;;;;;14.68;9.18;;;;;;;;;;4934414;29;20024;-85
2022/09/24 01:21:24;;;;;;;12.43;9.02;;;;;;;;;;4935188;29;20035;-86
2022/09/24 01:23:53;;;;;;;13.07;9.23;;;;;;;;;;4935420;29;20547;-86
2022/09/24 01:26:38;;;;;;;13.52;9.27;;;;;;;;;;4934530;29;20032;-89
2022/09/24 01:29:20;;;;;;;12.52;8.77;;;;;;;;;;4921845;29;20028;-88
2022/09/24 01:31:51;;;;;;;13.48;9.07;;;;;;;;;;4914670;29;20028;-87
2022/09/24 01:34:22;;;;;;;17.75;9.77;;;;;;;;;;4916060;29;20042;-85
2022/09/24 01:36:49;;;;;;;17.00;9.63;;;;;;;;;;4916477;29;20047;-86
2022/09/24 01:39:16;;;;;;;14.90;9.18;;;;;;;;;;4917091;29;20099;-85
2022/09/24 01:41:43;;;;;;;14.52;9.10;;;;;;;;;;4932033;29;20072;-85
2022/09/24 01:44:10;;;;;;;13.55;9.43;;;;;;;;;;4923524;29;20438;-85
2022/09/24 01:46:40;;;;;;;16.88;9.95;;;;;;;;;;4926120;29;20409;-85
2022/09/24 01:49:06;;;;;;;15.13;9.73;;;;;;;;;;4916013;29;20020;-86
2022/09/24 01:51:43;;;;;;;16.95;9.55;;;;;;;;;;4918093;29;20028;-86
2022/09/24 01:54:14;;;;;;;17.65;9.88;;;;;;;;;;4933705;29;20027;-87
2022/09/24 01:56:54;;;;;;;15.68;9.38;;;;;;;;;;4935552;29;20052;-85
2022/09/24 01:59:27;;;;;;;15.95;9.73;;;;;;;;;;4933138;29;20024;-86
2022/09/24 02:02:05;;;;;;;16.50;9.80;;;;;;;;;;4934528;29;20441;-89
2022/09/24 02:04:31;;;;;;;;;;;;;;;;;;4935014;29;20090;-87
2022/09/24 02:07:00;;;;;;;21.30;9.75;;;;;;;;;;4934534;29;19907;-87
2022/09/24 02:09:28;;;;;;;16.50;10.02;;;;;;;;;;4930473;29;20050;-86
2022/09/24 02:11:55;;;;;;;16.20;10.18;;;;;;;;;;4919383;29;20056;-88
2022/09/24 02:14:22;;;;;;;16.87;10.07;;;;;;;;;;4940532;29;20042;-85
2022/09/24 02:16:49;;;;;;;17.60;9.52;;;;;;;;;;4945331;29;20035;-85
2022/09/24 02:19:18;;;;;;;18.55;9.48;;;;;;;;;;4946036;29;20038;-84
2022/09/24 02:21:45;;;;;;;19.73;9.57;;;;;;;;;;4939552;29;20506;-85
2022/09/24 02:24:23;;;;;;;14.68;9.85;;;;;;;;;;4935477;29;20051;-85
2022/09/24 02:26:50;;;;;;;16.23;9.02;;;;;;;;;;4935243;29;20031;-85
2022/09/24 02:29:17;;;;;;;15.07;9.27;;;;;;;;;;4934599;29;20032;-84
2022/09/24 02:31:48;;;;;;;13.35;8.55;;;;;;;;;;4934870;29;20028;-86
2022/09/24 02:34:19;;;;;;;15.57;8.90;;;;;;;;;;4933820;29;20036;-85
2022/09/24 02:36:46;;;;;;;14.25;8.65;;;;;;;;;;4935076;29;20040;-85
2022/09/24 02:39:12;;;;;;;16.05;9.32;;;;;;;;;;4934883;29;20062;-84
2022/09/24 02:41:38;;;;;;;17.02;9.07;;;;;;;;;;4933123;29;20059;-84
2022/09/24 02:44:04;;;;;;;16.35;8.48;;;;;;;;;;4921305;29;20028;-84
2022/09/24 02:46:30;;;;;;;16.23;8.63;;;;;;;;;;4924013;29;20043;-84
2022/09/24 02:48:56;;;;;;;22.73;9.55;;;;;;;;;;4932075;29;20484;-84
2022/09/24 02:51:22;;;;;;;15.38;8.50;;;;;;;;;;4933767;29;20062;-85
2022/09/24 02:53:49;;;;;;;20.52;9.20;;;;;;;;;;4934161;29;20028;-85
2022/09/24 02:56:15;;;;;;;18.13;9.68;;;;;;;;;;4934251;29;20044;-84
2022/09/24 02:58:42;;;;;;;16.58;10.40;;;;;;;;;;4929469;29;20032;-84
2022/09/24 03:01:08;;;;;;;17.60;9.57;;;;;;;;;;4914661;29;20039;-84
2022/09/24 03:03:34;;;;;;;15.40;9.48;;;;;;;;;;4914202;29;20028;-85
2022/09/24 03:06:00;;;;;;;20.48;9.80;;;;;;;;;;4933483;29;20036;-84
2022/09/24 03:08:26;;;;;;;16.10;9.25;;;;;;;;;;4932116;29;20452;-85
2022/09/24 03:10:52;;;;;;;14.52;8.15;;;;;;;;;;4933754;29;20498;-85
2022/09/24 03:13:19;;;;;;;14.38;8.90;;;;;;;;;;4923725;29;20034;-84
2022/09/24 03:15:45;;;;;;;11.90;8.05;;;;;;;;;;4929049;29;20028;-84
2022/09/24 03:18:12;;;;;;;18.98;8.27;;;;;;;;;;4913913;29;20457;-86
2022/09/24 03:20:38;;;;;;;17.77;8.95;;;;;;;;;;4914082;29;20356;-85
2022/09/24 03:23:04;;;;;;;15.60;8.68;;;;;;;;;;4913485;29;20056;-84
2022/09/24 03:25:30;;;;;;;17.42;9.32;;;;;;;;;;4927330;29;20078;-84
2022/09/24 03:27:56;;;;;;;18.85;9.13;;;;;;;;;;4932719;29;20543;-88
2022/09/24 03:33:07;;;;;;;21.52;9.30;;;;;;;;;;4933103;29;20054;-88
2022/09/24 03:35:33;;;;;;;16.00;8.57;;;;;;;;;;4919658;29;20408;-87
2022/09/24 03:37:59;;;;;;;19.10;8.68;;;;;;;;;;4913125;29;20047;-86
2022/09/24 03:40:25;;;;;;;17.15;8.63;;;;;;;;;;4914446;29;20075;-87
2022/09/24 03:42:51;;;;;;;18.02;8.77;;;;;;;;;;4916467;29;20034;-87
2022/09/24 03:45:17;;;;;;;14.65;8.38;;;;;;;;;;4923715;29;20028;-86
2022/09/24 03:47:43;;;;;;;13.00;7.80;;;;;;;;;;4914986;29;20036;-87
2022/09/24 03:50:10;;;;;;;15.20;8.38;;;;;;;;;;4914311;29;20392;-86
2022/09/24 03:52:36;;;;;;;12.70;8.65;;;;;;;;;;4913952;29;20047;-87
2022/09/24 03:55:02;;;;;;;14.13;8.40;;;;;;;;;;4921220;29;20024;-85
2022/09/24 03:57:28;;;;;;;14.10;8.50;;;;;;;;;;4931200;29;20044;-88
2022/09/24 03:59:54;;;;;;;17.13;9.07;;;;;;;;;;4931522;29;20067;-86
2022/09/24 04:02:21;;;;;;;14.77;8.35;;;;;;;;;;4933838;29;20502;-87
2022/09/24 04:04:47;;;;;;;18.98;9.70;;;;;;;;;;4932779;29;20488;-91
2022/09/24 04:07:13;;;;;;;12.85;8.68;;;;;;;;;;4930126;29;20484;-88
2022/09/24 04:09:40;;;;;;;16.05;9.32;;;;;;;;;;4931873;29;20055;-86
2022/09/24 04:12:06;;;;;;;16.23;9.25;;;;;;;;;;4920667;29;20028;-88
2022/09/24 04:14:32;;;;;;;16.30;9.32;;;;;;;;;;4932216;29;20038;-87
2022/09/24 04:16:58;;;;;;;16.48;9.32;;;;;;;;;;4922127;29;20036;-87
2022/09/24 04:19:25;;;;;;;15.20;8.40;;;;;;;;;;4913528;29;20024;-89
2022/09/24 04:21:52;;;;;;;13.75;8.32;;;;;;;;;;4916492;29;20032;-86
2022/09/24 04:24:18;;;;;;;18.27;7.93;;;;;;;;;;4931139;29;20179;-87
2022/09/24 04:26:44;;;;;;;14.57;8.45;;;;;;;;;;4929687;29;20607;-85
2022/09/24 04:29:11;;;;;;;15.52;8.35;;;;;;;;;;4923742;29;20452;-87
2022/09/24 04:31:39;;;;;;;13.03;8.23;;;;;;;;;;4928461;29;20035;-93
2022/09/24 04:34:05;;;;;;;15.52;8.93;;;;;;;;;;4926930;29;20123;-86
2022/09/24 04:36:31;;;;;;;12.60;8.13;;;;;;;;;;4932634;29;20048;-95
2022/09/24 04:38:58;;;;;;;14.18;8.23;;;;;;;;;;4936858;29;20020;-93
2022/09/24 04:41:24;;;;;;;14.52;8.25;;;;;;;;;;4939600;29;20027;-93
2022/09/24 04:43:50;;;;;;;14.35;8.30;;;;;;;;;;4937951;29;20492;-90
2022/09/24 04:46:17;;;;;;;16.67;8.60;;;;;;;;;;4935097;29;20088;-86
2022/09/24 04:48:44;;;;;;;12.20;7.72;;;;;;;;;;4934254;29;20472;-88
2022/09/24 04:51:10;;;;;;;16.25;8.18;;;;;;;;;;4936891;29;20043;-85
2022/09/24 04:53:36;;;;;;;16.60;8.40;;;;;;;;;;4947594;29;20016;-85
2022/09/24 04:56:10;;;;;;;12.75;7.97;;;;;;;;;;4950666;29;20020;-86
2022/09/24 04:58:36;;;;;;;14.43;8.55;;;;;;;;;;4944857;29;20027;-85
2022/09/24 05:01:02;;;;;;;16.35;9.07;;;;;;;;;;4939227;29;20043;-84
2022/09/24 05:03:29;;;;;;;16.20;8.27;;;;;;;;;;4938131;29;20023;-86
2022/09/24 05:05:55;;;;;;;18.70;8.82;;;;;;;;;;4936412;29;20026;-89
2022/09/24 05:08:21;;;;;;;21.13;8.52;;;;;;;;;;4939969;29;20028;-90
2022/09/24 05:10:49;;;;;;;16.20;8.73;;;;;;;;;;4927600;29;20023;-90
2022/09/24 05:13:16;;;;;;;18.42;8.63;;;;;;;;;;4925722;29;20403;-85
2022/09/24 05:15:42;;;;;;;15.93;9.30;;;;;;;;;;4929043;29;20103;-91
2022/09/24 05:18:08;;;;;;;18.05;8.75;;;;;;;;;;4926232;29;20032;-87
2022/09/24 05:20:34;;;;;;;14.55;8.50;;;;;;;;;;4928810;29;20102;-90
2022/09/24 05:23:00;;;;;;;12.43;8.35;;;;;;;;;;4927358;29;20059;-85
2022/09/24 05:25:26;;;;;;;18.05;8.75;;;;;;;;;;4927862;29;20036;-85
2022/09/24 05:27:54;;;;;;;17.98;9.10;;;;;;;;;;4931311;29;20032;-91
2022/09/24 05:30:21;;;;;;;18.13;9.17;;;;;;;;;;4929187;29;20480;-89
2022/09/24 05:32:51;;;;;;;19.02;9.38;;;;;;;;;;4926484;29;20392;-91
2022/09/24 05:35:18;;;;;;;21.95;9.13;;;;;;;;;;4928064;29;20024;-92
2022/09/24 05:37:44;;;;;;;17.98;9.85;;;;;;;;;;4926413;29;20055;-85
2022/09/24 05:43:02;;;;;;;16.45;9.48;;;;;;;;;;4925321;29;20050;-86
2022/09/24 05:45:28;;;;;;;17.23;9.32;;;;;;;;;;4925977;29;20024;-89
2022/09/24 05:47:54;;;;;;;20.45;9.35;;;;;;;;;;4920921;29;20385;-90
2022/09/24 05:50:21;;;;;;;15.00;8.40;;;;;;;;;;4924840;29;20114;-88
2022/09/24 05:52:47;;;;;;;17.35;8.60;;;;;;;;;;4924161;29;20032;-90
2022/09/24 05:55:13;;;;;;;11.65;7.43;;;;;;;;;;4922751;29;20099;-85
2022/09/24 05:57:39;;;;;;;12.90;6.72;;;;;;;;;;4939842;29;22232;-87
2022/09/24 06:00:08;;;;;;;10.93;7.50;;;;;;;;;;4932638;29;20028;-87
2022/09/24 06:02:34;;;;;;;13.75;7.00;;;;;;;;;;4920086;29;20032;-87
2022/09/24 06:05:00;;;;;;;15.27;7.07;;;;;;;;;;4924276;29;20024;-88
2022/09/24 06:07:27;;;;;;;13.55;7.30;;;;;;;;;;4929975;29;20403;-86
2022/09/24 06:09:54;;;;;;;12.55;6.85;;;;;;;;;;4931946;29;20023;-88
2022/09/24 06:12:21;;;;;;;12.20;7.07;;;;;;;;;;4929547;29;20079;-87
2022/09/24 06:14:49;;;;;;;9.18;6.47;;;;;;;;;;4933244;29;20539;-87
2022/09/24 06:17:15;;;;;;;17.02;7.32;;;;;;;;;;4926943;29;20075;-89
2022/09/24 06:19:46;;;;;;;12.50;7.40;;;;;;;;;;4925420;29;20027;-90
2022/09/24 06:22:21;;;;;;;11.73;6.85;;;;;;;;;;4928472;29;20031;-91
2022/09/24 06:24:47;;;;;;;11.25;7.13;;;;;;;;;;4928944;29;20499;-90
2022/09/24 06:27:13;;;;;;;16.70;7.68;;;;;;;;;;4925020;29;20060;-90
2022/09/24 06:29:39;;;;;;;16.65;7.47;;;;;;;;;;4923496;29;20090;-92
2022/09/24 06:32:07;;;;;;;16.65;7.45;;;;;;;;;;4924625;29;20472;-90
2022/09/24 06:34:33;;;;;;;14.80;7.47;;;;;;;;;;4930081;29;20040;-91
2022/09/24 06:36:59;;;;;;;13.88;7.90;;;;;;;;;;4922324;29;20044;-90
2022/09/24 06:39:26;;;;;;;11.52;7.63;;;;;;;;;;4925031;29;20031;-90
2022/09/24 06:41:53;;;;;;;17.50;8.23;;;;;;;;;;4924132;29;20031;-88
2022/09/24 06:44:19;;;;;;;18.73;8.20;;;;;;;;;;4926257;29;20255;-89
2022/09/24 06:46:46;;;;;;;12.00;7.53;;;;;;;;;;4924178;29;20036;-90
2022/09/24 06:49:12;;;;;;;14.20;8.68;;;;;;;;;;4923877;29;20028;-91
2022/09/24 06:51:41;;;;;;;14.07;8.23;;;;;;;;;;4924289;29;20023;-91
2022/09/24 06:54:07;;;;;;;12.55;7.35;;;;;;;;;;4924770;29;20034;-88
2022/09/24 06:56:33;;;;;;;11.07;7.25;;;;;;;;;;4924819;29;21101;-90
2022/09/24 06:58:59;;;;;;;18.00;7.75;;;;;;;;;;4920133;29;20564;-88
2022/09/24 07:01:25;;;;;;;16.27;7.97;;;;;;;;;;4925593;29;20035;-90
2022/09/24 07:03:54;;;;;;;12.35;7.53;;;;;;;;;;4926202;29;20503;-89
2022/09/24 07:06:20;;;;;;;14.80;6.90;;;;;;;;;;4917020;29;20467;-90
2022/09/24 07:08:49;;;;;;;13.10;7.35;;;;;;;;;;4925101;29;20196;-91
2022/09/24 07:11:15;;;;;;;14.95;8.55;;;;;;;;;;4922807;29;20036;-91
2022/09/24 07:13:41;;;;;;;13.98;7.57;;;;;;;;;;4924248;29;20119;-89
2022/09/24 07:16:28;;;;;;;15.05;7.68;;;;;;;;;;4917902;29;20107;-91
2022/09/24 07:18:57;;;;;;;12.18;8.07;;;;;;;;;;4926255;29;20023;-91
2022/09/24 07:21:23;;;;;;;12.43;8.07;;;;;;;;;;4927388;29;20039;-89
2022/09/24 07:23:49;;;;;;;12.02;7.90;;;;;;;;;;4921376;29;20017;-90
2022/09/24 07:26:15;;;;;;;17.60;8.52;;;;;;;;;;4927022;29;20036;-89
2022/09/24 07:28:41;;;;;;;17.13;7.90;;;;;;;;;;4932982;29;20404;-92
2022/09/24 07:31:08;;;;;;;14.15;7.80;;;;;;;;;;4925758;29;20032;-90
2022/09/24 07:33:34;;;;;;;23.38;10.02;;;;;;;;;;4925793;29;20083;-89
2022/09/24 07:36:05;;;;;;;13.48;8.15;;;;;;;;;;4924636;29;20200;-90
2022/09/24 07:38:31;;;;;;;12.48;8.02;;;;;;;;;;4918764;29;20063;-87
2022/09/24 07:40:58;;;;;;;15.80;8.93;;;;;;;;;;4927319;29;20399;-91
2022/09/24 07:43:24;;;;;;;13.95;8.55;;;;;;;;;;4922278;29;20051;-88
2022/09/24 07:45:50;;;;;;;11.82;7.65;;;;;;;;;;4922532;29;20099;-89
2022/09/24 07:48:16;;;;;;;18.65;8.43;;;;;;;;;;4927366;29;20032;-89
2022/09/24 07:50:45;;;;;;;15.82;7.70;;;;;;;;;;4931619;29;20111;-94
2022/09/24 07:53:11;;;;;;;12.50;7.97;;;14.40;99.90;;;;;;4936381;29;20044;-93
2022/09/24 07:58:24;;;;;;;17.48;7.80;;;;;;;;;;4912536;29;20040;-91
2022/09/24 08:01:38;;;;;;;;;;;;;;;;;;;;;
2022/09/24 08:06:51;;;;;;;;;;;;;;;;;;;;;
2022/09/24 08:09:25;;;;;;;13.73;8.18;;;;;;;;;;4921450;29;20023;-93
2022/09/24 08:12:08;;;;;;;18.20;8.70;;;16.30;99.90;;;;;;4919875;29;20344;-94
2022/09/24 08:14:34;;;;;;;15.77;8.57;;;;;;;;;;4929802;29;20408;-91
2022/09/24 08:17:01;;;;;;;15.05;8.20;;;;;;;;;;4931264;29;20099;-92
2022/09/24 08:19:29;;;;;;;14.68;8.60;;;;;;;;;;4930182;29;20031;-95
2022/09/24 08:21:56;;;;;;;20.30;9.43;;;;;;;;;;4929913;29;20028;-93
2022/09/24 08:24:35;;;;;;;22.08;9.77;;;14.90;99.90;;;;;;4966477;29;20046;-88
2022/09/24 08:27:01;;;;;;;29.05;9.90;;;15.00;99.90;;;;;;4939459;29;20027;-87
2022/09/24 08:29:27;;;;;;;18.48;8.82;;;;;;;;;;4935287;29;20024;-92
2022/09/24 08:31:53;;;;;;;15.43;8.85;;;;;;;;;;4935781;29;20498;-89
2022/09/24 08:34:22;;;;;;;16.70;9.30;;;14.80;99.90;;;;;;4931685;29;20031;-91
2022/09/24 08:36:51;;;;;;;17.10;8.30;;;14.90;99.90;;;;;;4929876;29;20479;-90
2022/09/24 08:39:17;;;;;;;15.07;7.90;;;;;;;;;;4950004;28;20027;-91
2022/09/24 08:41:56;;;;;;;20.90;7.32;;;15.20;99.90;;;;;;4932873;29;20031;-90
2022/09/24 08:47:47;;;;;;;19.77;7.22;;;15.70;99.90;;;;;;4940829;29;20091;-89
2022/09/24 08:50:16;;;;;;;18.23;7.65;;;;;;;;;;4916112;29;20039;-92
2022/09/24 08:52:45;;;;;;;23.60;7.63;;;;;;;;;;4936608;29;20039;-88
2022/09/24 08:55:20;;;;;;;19.67;7.82;;;14.80;99.90;;;;;;4931751;29;20020;-91
2022/09/24 08:58:24;;;;;;;19.83;7.03;;;14.70;99.90;;;;;;4934371;29;20032;-88
2022/09/24 09:01:11;;;;;;;21.48;7.32;;;14.90;99.90;;;;;;4943852;29;20032;-94
2022/09/24 09:03:48;;;;;;;20.38;5.90;;;14.90;99.90;;;;;;4935789;29;20040;-91
2022/09/24 09:06:41;;;;;;;17.65;6.32;;;14.90;99.90;;;;;;4942307;29;20116;-89
2022/09/24 09:09:24;;;;;;;15.98;5.35;;;15.20;99.90;;;;;;4930693;29;20024;-90
2022/09/24 09:11:55;;;;;;;15.02;5.43;;;15.20;99.90;;;;;;4939269;29;20032;-91
2022/09/24 09:14:48;;;;;;;12.93;4.75;;;15.20;99.90;;;;;;4934664;29;20031;-91
2022/09/24 09:17:33;;;;;;;14.05;4.50;;;15.30;99.90;;;;;;4934059;29;20510;-87
2022/09/24 09:20:05;;;;;;;18.05;4.45;;;15.70;99.90;;;;;;4938831;29;20034;-93
2022/09/24 09:22:40;;;;;;;12.40;4.57;;;15.60;99.90;;;;;;4932134;29;20035;-89
2022/09/24 09:25:28;;;;;;;14.63;4.47;;;15.60;99.90;;;;;;4927494;29;20107;-92
2022/09/24 09:28:15;;;;;;;11.60;3.72;;;15.70;99.90;;;;;;4937122;29;20024;-91
2022/09/24 09:31:09;;;;;;;18.73;4.30;;;15.70;99.90;;;;;;4933935;29;20039;-94
2022/09/24 09:34:10;;;;;;;15.88;3.90;;;16.00;99.90;;;;;;4923165;29;20036;-93
2022/09/24 09:37:02;;;;;;;10.00;3.53;;;16.00;99.90;;;;;;4933105;29;20043;-92
2022/09/24 09:40:13;;;;;;;17.40;3.63;;;16.10;99.90;;;;;;4931888;29;20023;-92
2022/09/24 09:42:39;;;;;;;21.13;3.92;;;16.10;99.90;;;;;;4917970;29;20067;-89
2022/09/24 09:45:47;;;;;;;10.98;3.63;;;16.00;99.90;;;;;;4929427;29;20070;-90
2022/09/24 09:48:15;;;;;;;;;;;16.00;99.90;;;;;;4927413;29;20123;-91
2022/09/24 09:50:48;;;;;;;21.83;3.63;;;15.20;99.90;;;;;;4932888;29;19981;-90
2022/09/24 09:53:25;;;;;;;15.80;3.60;;;18.20;99.90;;;;;;4929908;29;20050;-89
2022/09/24 09:55:58;;;;;;;10.53;3.60;;;16.40;99.90;;;;;;4935104;29;20043;-90
2022/09/24 09:58:25;;;;;;;14.50;4.25;;;16.40;99.90;;;;;;4936861;29;20361;-90
2022/09/24 10:01:01;;;;;;;12.30;3.53;;;16.20;99.90;;;;;;4936093;29;20023;-88
2022/09/24 10:03:32;;;;;;;11.18;3.00;;;16.20;99.90;;;;;;4938489;29;20028;-91
2022/09/24 10:06:04;;;;;;;17.35;3.35;;;16.60;99.90;;;;;;4932181;29;20040;-88
2022/09/24 10:08:30;;;;;;;15.48;3.75;;;;;;;;;;4926595;29;20028;-88
2022/09/24 10:11:06;;;;;;;13.70;3.97;;;16.70;99.90;;;;;;4915912;29;20043;-93
2022/09/24 10:13:33;;;;;;;17.58;3.35;;;;;;;;;;4922145;29;20032;-86
2022/09/24 10:16:03;;;;;;;8.93;3.05;;;16.80;99.90;;;;;;4932696;29;20065;-88
2022/09/24 10:18:45;;;;;;;9.75;3.08;;;16.70;99.90;;;;;;4949176;29;20031;-88
2022/09/24 10:21:25;;;;;;;10.35;2.90;;;17.00;99.90;;;;;;4955971;28;20062;-92
2022/09/24 10:23:51;;;;;;;12.93;2.47;;;;;;;;;;4960246;29;20098;-92
2022/09/24 10:26:18;;;;;;;12.43;2.90;;;17.20;99.90;;;;;;4956046;29;20035;-88
2022/09/24 10:31:37;;;;;;;8.82;2.45;;;17.30;99.90;;;;;;4927148;29;20087;-94
2022/09/24 10:34:20;;;;;;;15.88;2.80;;;17.60;99.90;;;;;;4936892;29;20059;-94
2022/09/24 10:37:00;;;;;;;7.30;2.53;;;17.40;99.90;;;;;;4929434;29;20475;-89
2022/09/24 10:39:27;;;;;;;14.95;2.50;;;;;;;;;;4924809;29;20207;-91
2022/09/24 10:41:57;;;;;;;8.40;2.92;;;16.80;99.90;;;;;;4929237;29;20028;-91
2022/09/24 10:44:28;;;;;;;9.88;2.28;;;16.70;99.90;;;;;;4936308;29;20035;-91
2022/09/24 10:47:22;;;;;;;19.98;3.58;;;16.60;99.90;;;;;;4936856;29;20028;-88
2022/09/24 10:50:06;;;;;;;10.07;2.55;;;16.50;99.90;;;;;;4921816;29;20071;-93
2022/09/24 10:52:51;;;;;;;9.98;2.33;;;16.60;99.90;;;;;;4939925;29;20467;-91
2022/09/24 10:55:31;;;;;;;13.15;2.10;;;18.10;99.90;;;;;;4921945;29;20024;-90
2022/09/24 10:58:34;;;;;;;8.57;1.80;;;16.60;99.90;;;;;;4934660;29;20111;-92
2022/09/24 11:01:07;;;;;;;7.68;1.67;;;17.00;99.90;;;;;;4918384;29;20024;-92
2022/09/24 11:03:36;;;;;;;12.32;1.73;;;18.50;99.90;;;;;;4922186;29;20036;-93
2022/09/24 11:06:08;;;;;;;6.43;1.90;;;17.00;99.90;;;;;;4926762;29;20381;-90
2022/09/24 11:09:04;;;;;;;10.07;1.80;;;17.20;99.90;;;;;;4930739;29;20384;-92
2022/09/24 11:11:44;;;;;;;8.80;1.83;;;16.80;99.90;;;;;;4936330;29;20582;-88
2022/09/24 11:14:40;;;;;;;7.32;1.45;;;17.20;99.90;;;;;;4939303;29;20031;-92
2022/09/24 11:17:30;;;;;;;7.70;1.60;;;17.30;99.90;;;;;;4931721;29;20036;-89
2022/09/24 11:19:56;;;;;;;7.40;1.80;;;;;;;;;;4918799;29;20081;-93
2022/09/24 11:22:42;;;;;;;9.63;2.35;;;17.40;99.90;;;;;;4917416;29;20377;-89
2022/09/24 11:25:16;;;;;;;4.18;1.85;;;17.40;99.90;;;;;;4917496;29;20111;-93
2022/09/24 11:28:06;;;;;;;4.55;2.13;;;17.40;99.90;;;;;;4917794;29;20032;-92
2022/09/24 11:31:06;;;;;;;4.50;1.70;;;17.40;99.90;;;;;;4916009;29;20032;-91
2022/09/24 11:33:51;;;;;;;8.52;1.60;;;17.40;99.90;;;;;;4919334;29;20104;-92
2022/09/24 11:36:32;;;;;;;12.57;1.83;;;17.40;99.90;;;;;;4916640;29;20028;-89
2022/09/24 11:39:35;;;;;;;7.70;1.73;;;17.80;99.90;;;;;;4914309;29;20040;-92
2022/09/24 11:42:27;;;;;;;11.40;1.80;;;17.60;99.90;;;;;;4915571;29;20071;-89
2022/09/24 11:45:18;;;;;;;9.48;2.22;;;17.60;99.90;;;;;;4914029;29;20028;-89
2022/09/24 11:48:36;;;;;;;5.15;1.80;;;17.60;99.90;;;;;;4913555;29;20031;-91
2022/09/24 11:51:02;;;;;;;7.75;1.92;;;;;;;;;;4893630;29;20032;-88
2022/09/24 11:53:30;;;;;;;8.43;1.90;;;16.80;99.90;;;;;;4919369;29;20035;-91
2022/09/24 11:56:34;;;;;;;4.22;1.80;;;16.70;99.90;;;;;;4915022;29;20492;-89
2022/09/24 11:59:13;;;;;;;5.53;2.03;;;16.90;99.90;;;;;;4914044;29;20261;-91
2022/09/24 12:01:47;;;;;;;9.90;2.08;;;17.10;99.90;;;;;;4916453;29;20016;-91
2022/09/24 12:04:41;;;;;;;3.25;1.80;;;17.10;99.90;;;;;;4915910;29;20031;-94
2022/09/24 12:07:09;;;;;;;9.43;2.00;;;;;;;;;;4922172;29;20040;-94
2022/09/24 12:10:28;;;;;;;5.60;1.50;;;17.50;99.90;;;;;;4919700;29;20020;-95
2022/09/24 12:13:26;;;;;;;3.80;1.42;;;17.50;99.90;;;;;;4926616;29;20060;-87
2022/09/24 12:15:57;;;;;;;;;;;17.50;99.90;;;;;;4925840;29;20023;-94
2022/09/24 12:18:34;;;;;;;6.63;1.77;;;17.40;99.90;;;;;;4921146;29;20287;-91
2022/09/24 12:21:06;;;;;;;4.32;1.52;;;17.50;99.90;;;;;;4922277;29;20032;-92
2022/09/24 12:23:41;;;;;;;2.05;1.30;;;17.60;99.90;;;;;;4921257;29;20064;-94
2022/09/24 12:26:09;;;;;;;3.22;1.27;;;17.60;99.90;;;;;;4920248;29;20024;-93
2022/09/24 12:35:06;;;;;;;4.85;1.50;;;18.00;99.90;;;;;;4917941;29;20046;-93
2022/09/24 12:37:33;;;;;;;;;;;17.70;99.90;;;;;;4918875;29;20366;-92
2022/09/24 12:40:12;;;;;;;4.72;1.67;;;;;;;;;;4922337;29;19907;-93
2022/09/24 12:42:50;;;;;;;5.30;1.50;;;;;;;;;;4920459;29;20048;-90
2022/09/24 12:45:16;;;;;;;;;;;;;;;;;;4922787;29;20055;-92
2022/09/24 12:47:52;;;;;;;5.63;1.70;;;;;;;;;;4919905;29;19907;-94
2022/09/24 12:50:23;;;;;;;9.18;1.92;;;;;;;;;;4918745;29;20024;-91
2022/09/24 12:52:50;;;;;;;9.80;1.77;;;;;;;;;;4923804;29;20036;-93
2022/09/24 12:55:19;;;;;;;5.38;1.90;;;;;;;;;;4922760;29;20028;-91
2022/09/24 12:57:56;;;;;;;9.32;2.08;;;;;;;;;;4930722;29;20036;-91
2022/09/24 13:00:32;;;;;;;5.95;1.90;;;;;;;;;;4932251;29;20028;-90
2022/09/24 13:02:59;;;;;;;2.35;1.70;;;;;;;;;;4929145;29;20028;-92
2022/09/24 13:05:32;;;;;;;8.57;1.92;;;;;;;;;;4920814;29;20536;-91
2022/09/24 13:08:02;;;;;;;5.22;2.00;;;;;;;;;;4916944;29;20127;-90
2022/09/24 13:10:33;;;;;;;5.70;1.80;;;;;;;;;;4918871;29;20060;-92
2022/09/24 13:13:00;;;;;;;7.32;1.90;;;;;;;;;;4917580;29;20032;-92
2022/09/24 13:15:29;;;;;;;5.47;1.77;;;;;;;;;;4919892;29;20024;-91
2022/09/24 13:18:10;;;;;;;3.20;1.65;;;;;;;;;;4920844;29;20409;-92
2022/09/24 13:20:40;;;;;;;6.13;1.92;;;;;;;;;;4915884;29;20503;-92
2022/09/24 13:23:13;;;;;;;6.63;1.92;;;;;;;;;;4918526;29;20032;-90
2022/09/24 13:25:40;;;;;;;6.93;1.70;;;;;;;;;;4920050;29;20048;-92
2022/09/24 13:28:24;;;;;;;10.60;2.03;;;;;;;;;;4917888;29;20119;-91
2022/09/24 13:30:58;;;;;;;6.95;1.70;;;;;;;;;;4924082;29;20036;-92
2022/09/24 13:33:31;;;;;;;5.80;1.63;;;;;;;;;;4921236;29;20040;-91
2022/09/24 13:36:05;;;;;;;5.35;1.90;;;;;;;;;;4920322;29;20102;-89
2022/09/24 13:38:33;;;;;;;7.47;1.70;;;;;;;;;;4917645;29;20122;-90
2022/09/24 13:41:26;;;;;;;8.35;1.88;;;;;;;;;;4918356;29;20485;-91
2022/09/24 13:44:11;;;;;;;5.53;1.77;;;;;;;;;;4913231;29;20040;-92
2022/09/24 13:46:40;;;;;;;3.58;1.58;;;;;;;;;;4917632;29;20036;-90
2022/09/24 13:49:11;;;;;;;4.85;1.75;;;;;;;;;;4918131;29;20331;-91
2022/09/24 13:51:38;;;;;;;4.97;1.70;;;;;;;;;;4919924;29;20032;-90
2022/09/24 13:54:17;;;;;;;12.37;3.57;;;;;;;;;;4920263;29;20036;-88
2022/09/24 13:56:54;;;;;;;7.68;1.77;;;;;;;;;;4918528;29;20040;-89
2022/09/24 13:59:20;;;;;;;5.03;2.13;;;;;;;;;;4917341;29;20066;-92
2022/09/24 14:01:47;;;;;;;6.05;2.28;;;;;;;;;;4926193;29;20039;-90
2022/09/24 14:04:20;;;;;;;9.40;2.00;;;;;;;;;;4932829;29;20024;-90
2022/09/24 14:06:49;;;;;;;5.85;2.00;;;;;;;;;;4917754;29;20504;-88
2022/09/24 14:09:32;;;;;;;4.63;2.10;;;;;;;;;;4924244;29;20027;-89
2022/09/24 14:12:02;;;;;;;2.30;1.80;;;;;;;;;;4934519;29;20035;-88
2022/09/24 14:14:29;;;;;;;8.40;2.72;;;;;;;;;;4936020;29;20027;-89
2022/09/24 14:17:12;;;;;;;4.40;1.90;;;;;;;;;;4932937;29;20380;-88
2022/09/24 14:19:38;;;;;;;9.90;1.92;;;;;;;;;;4920995;29;20661;-88
2022/09/24 14:22:07;;;;;;;11.18;2.10;;;;;;;;;;4918581;29;20028;-89
2022/09/24 14:24:42;;;;;;;6.25;2.40;;;;;;;;;;4914862;29;20074;-91
2022/09/24 14:27:11;;;;;;;7.65;2.33;;;;;;;;;;4915235;29;20696;-90
2022/09/24 14:29:54;;;;;;;6.25;1.90;;;;;;;;;;4914778;29;20024;-89
2022/09/24 14:32:26;;;;;;;6.07;2.35;;;;;;;;;;4922889;29;20023;-91
2022/09/24 14:34:56;;;;;;;3.30;1.98;;;;;;;;;;4934853;29;20043;-90
2022/09/24 14:37:44;;;;;;;5.00;1.80;;;;;;;;;;4935667;29;20059;-90
2022/09/24 14:40:20;;;;;;;5.57;2.10;;;;;;;;;;4935703;29;20467;-89
2022/09/24 14:42:48;;;;;;;9.35;2.20;;;;;;;;;;4918819;29;20039;-89
2022/09/24 14:45:19;;;;;;;3.20;1.80;;;;;;;;;;4922254;29;20032;-91
2022/09/24 14:47:45;;;;;;;6.63;2.28;;;;;;;;;;4925829;29;20024;-91
2022/09/24 14:50:34;;;;;;;9.57;2.13;;;;;;;;;;4920284;29;20032;-89
2022/09/24 14:53:02;;;;;;;4.85;1.80;;;;;;;;;;4916180;29;20488;-90
2022/09/24 14:55:57;;;;;;;7.20;1.85;;;;;;;;;;4916825;29;20131;-90
2022/09/24 14:58:31;;;;;;;10.00;2.30;;;;;;;;;;4911769;29;20119;-90